createdAt,value
2022-12-25T00:00:42.414Z,61.30
2022-12-25T00:02:44.478Z,61.20
2022-12-25T00:04:46.494Z,61.30
2022-12-25T00:06:48.430Z,61.30
2022-12-25T00:08:53.072Z,61.30
2022-12-25T00:11:02.380Z,61.40
2022-12-25T00:13:04.211Z,61.30
2022-12-25T00:15:06.907Z,61.30
2022-12-25T00:17:08.710Z,61.30
2022-12-25T00:19:10.739Z,61.30
2022-12-25T00:21:12.971Z,61.20
2022-12-25T00:23:14.932Z,61.30
2022-12-25T00:25:16.916Z,61.20
2022-12-25T00:27:18.909Z,61.20
2022-12-25T00:29:20.969Z,61.20
2022-12-25T00:31:25.841Z,61.20
2022-12-25T00:33:27.706Z,61.20
2022-12-25T00:35:29.518Z,61.30
2022-12-25T00:37:31.321Z,61.30
2022-12-25T00:39:33.406Z,61.20
2022-12-25T00:41:35.301Z,61.20
2022-12-25T00:43:37.423Z,61.90
2022-12-25T00:45:39.856Z,61.30
2022-12-25T00:47:41.858Z,61.40
2022-12-25T00:49:43.852Z,61.30
2022-12-25T00:51:45.657Z,61.30
2022-12-25T00:53:47.401Z,61.30
2022-12-25T00:55:53.925Z,61.30
2022-12-25T00:57:55.640Z,61.30
2022-12-25T00:59:57.399Z,61.30
2022-12-25T01:01:59.303Z,61.30
2022-12-25T01:04:01.187Z,61.30
2022-12-25T01:06:05.720Z,61.20
2022-12-25T01:08:07.621Z,61.30
2022-12-25T01:10:10.282Z,61.30
2022-12-25T01:12:12.099Z,61.30
2022-12-25T01:14:13.882Z,61.30
2022-12-25T01:16:15.710Z,61.20
2022-12-25T01:18:17.840Z,61.20
2022-12-25T01:20:20.432Z,61.20
2022-12-25T01:22:22.219Z,61.20
2022-12-25T01:24:24.022Z,61.20
2022-12-25T01:26:26.746Z,61.20
2022-12-25T01:28:29.167Z,61.20
2022-12-25T01:30:30.893Z,61.20
2022-12-25T01:32:32.823Z,61.20
2022-12-25T01:34:34.608Z,61.20
2022-12-25T01:36:36.439Z,61.20
2022-12-25T01:38:38.182Z,61.90
2022-12-25T01:40:41.215Z,61.20
2022-12-25T01:42:43.015Z,61.20
2022-12-25T01:44:47.588Z,61.20
2022-12-25T01:46:49.318Z,61.20
2022-12-25T01:48:51.910Z,61.20
2022-12-25T01:51:16.646Z,61.20
2022-12-25T01:53:19.360Z,61.20
2022-12-25T01:55:21.881Z,61.20
2022-12-25T01:57:25.747Z,61.10
2022-12-25T01:59:27.793Z,61.20
2022-12-25T02:01:30.143Z,61.20
2022-12-25T02:03:32.632Z,61.20
2022-12-25T02:05:34.799Z,61.30
2022-12-25T02:07:37.262Z,61.20
2022-12-25T02:09:39.095Z,61.30
2022-12-25T02:11:40.818Z,61.20
2022-12-25T02:13:42.623Z,61.20
2022-12-25T02:16:02.891Z,61.20
2022-12-25T02:18:24.990Z,61.20
2022-12-25T02:20:36.209Z,61.10
2022-12-25T02:22:53.352Z,61.20
2022-12-25T02:25:13.353Z,61.20
2022-12-25T02:27:23.970Z,61.20
2022-12-25T02:29:34.418Z,61.10
2022-12-25T02:32:02.663Z,61.20
2022-12-25T02:34:15.468Z,61.10
2022-12-25T02:36:20.807Z,61.80
2022-12-25T02:38:33.138Z,61.20
2022-12-25T02:40:40.533Z,61.20
2022-12-25T02:42:56.200Z,61.10
2022-12-25T02:44:58.098Z,61.20
2022-12-25T02:47:00.760Z,61.10
2022-12-25T02:49:05.257Z,61.10
2022-12-25T02:51:09.073Z,61.90
2022-12-25T02:53:11.288Z,61.10
2022-12-25T02:55:14.550Z,61.10
2022-12-25T02:57:17.251Z,61.10
2022-12-25T02:59:19.712Z,61.10
2022-12-25T03:01:24.514Z,61.00
2022-12-25T03:03:29.227Z,61.00
2022-12-25T03:05:32.228Z,61.00
2022-12-25T03:07:36.737Z,61.10
2022-12-25T03:09:43.576Z,61.10
2022-12-25T03:11:45.861Z,61.20
2022-12-25T03:13:51.323Z,61.10
2022-12-25T03:15:53.198Z,61.10
2022-12-25T03:17:56.873Z,61.10
2022-12-25T03:19:59.125Z,61.10
2022-12-25T03:22:01.142Z,61.00
2022-12-25T03:24:02.879Z,61.10
2022-12-25T03:26:05.094Z,61.00
2022-12-25T03:28:06.828Z,61.10
2022-12-25T03:30:08.999Z,61.10
2022-12-25T03:32:19.819Z,61.00
2022-12-25T03:34:27.497Z,61.10
2022-12-25T03:36:38.802Z,61.20
2022-12-25T03:38:52.936Z,61.20
2022-12-25T03:41:04.707Z,61.10
2022-12-25T03:43:10.655Z,61.10
2022-12-25T03:45:17.695Z,61.10
2022-12-25T03:47:22.298Z,61.10
2022-12-25T03:49:26.856Z,61.00
2022-12-25T03:51:31.492Z,61.00
2022-12-25T03:53:33.234Z,61.00
2022-12-25T03:55:35.939Z,61.10
2022-12-25T03:57:37.678Z,61.10
2022-12-25T03:59:39.501Z,61.00
2022-12-25T04:01:41.338Z,61.00
2022-12-25T04:03:43.248Z,61.70
2022-12-25T04:05:45.034Z,61.00
2022-12-25T04:07:46.835Z,61.00
2022-12-25T04:09:48.575Z,61.10
2022-12-25T04:11:50.332Z,61.10
2022-12-25T04:13:52.059Z,61.10
2022-12-25T04:15:54.111Z,61.20
2022-12-25T04:17:55.870Z,61.20
2022-12-25T04:19:57.667Z,61.10
2022-12-25T04:21:59.433Z,61.00
2022-12-25T04:24:01.255Z,61.00
2022-12-25T04:26:03.006Z,61.00
2022-12-25T04:28:04.837Z,61.10
2022-12-25T04:30:06.877Z,61.00
2022-12-25T04:32:08.695Z,61.00
2022-12-25T04:34:10.488Z,61.00
2022-12-25T04:36:12.262Z,61.00
2022-12-25T04:38:14.070Z,61.00
2022-12-25T04:40:18.621Z,61.00
2022-12-25T04:42:20.390Z,61.00
2022-12-25T04:44:22.166Z,60.90
2022-12-25T04:46:23.959Z,61.00
2022-12-25T04:48:27.017Z,61.00
2022-12-25T04:50:28.741Z,61.00
2022-12-25T04:52:34.602Z,61.00
2022-12-25T04:54:37.715Z,61.00
2022-12-25T04:56:45.266Z,61.00
2022-12-25T04:58:47.461Z,61.00
2022-12-25T05:00:49.285Z,60.90
2022-12-25T05:02:51.093Z,61.00
2022-12-25T05:04:53.169Z,61.00
2022-12-25T05:06:54.947Z,61.00
2022-12-25T05:08:56.761Z,61.00
2022-12-25T05:10:58.479Z,61.00
2022-12-25T05:13:00.303Z,61.00
2022-12-25T05:15:02.074Z,61.00
2022-12-25T05:17:03.866Z,61.00
2022-12-25T05:19:05.633Z,60.90
2022-12-25T05:21:07.496Z,61.00
2022-12-25T05:23:11.015Z,61.00
2022-12-25T05:25:12.762Z,61.00
2022-12-25T05:27:14.695Z,61.00
2022-12-25T05:29:17.359Z,61.00
2022-12-25T05:31:19.255Z,60.90
2022-12-25T05:33:21.125Z,61.00
2022-12-25T05:35:22.846Z,61.00
2022-12-25T05:37:24.661Z,60.90
2022-12-25T05:39:26.465Z,61.00
2022-12-25T05:41:33.988Z,61.10
2022-12-25T05:43:36.306Z,61.00
2022-12-25T05:45:38.812Z,61.00
2022-12-25T05:47:40.521Z,61.00
2022-12-25T05:49:43.488Z,60.90
2022-12-25T05:51:45.346Z,60.90
2022-12-25T05:53:47.168Z,60.90
2022-12-25T05:55:48.918Z,60.90
2022-12-25T05:57:50.704Z,60.80
2022-12-25T05:59:52.458Z,61.00
2022-12-25T06:01:54.452Z,60.90
2022-12-25T06:03:56.783Z,60.80
2022-12-25T06:05:58.635Z,60.90
2022-12-25T06:08:00.391Z,61.00
2022-12-25T06:10:02.185Z,61.00
2022-12-25T06:12:04.241Z,61.00
2022-12-25T06:14:06.149Z,61.00
2022-12-25T06:16:09.318Z,61.00
2022-12-25T06:18:11.149Z,61.00
2022-12-25T06:20:12.883Z,61.00
2022-12-25T06:22:14.643Z,61.00
2022-12-25T06:24:21.197Z,61.00
2022-12-25T06:26:23.520Z,61.10
2022-12-25T06:28:25.258Z,61.10
2022-12-25T06:30:27.090Z,61.00
2022-12-25T06:32:28.843Z,61.00
2022-12-25T06:34:30.661Z,61.00
2022-12-25T06:36:32.489Z,61.00
2022-12-25T06:38:34.581Z,61.10
2022-12-25T06:40:36.308Z,61.10
2022-12-25T06:42:38.127Z,61.00
2022-12-25T06:44:39.836Z,61.00
2022-12-25T06:46:41.622Z,61.00
2022-12-25T06:48:43.874Z,61.10
2022-12-25T06:50:45.682Z,61.20
2022-12-25T06:52:47.414Z,61.10
2022-12-25T06:54:49.216Z,61.10
2022-12-25T06:56:50.942Z,61.10
2022-12-25T06:58:55.035Z,61.00
2022-12-25T07:00:56.867Z,61.00
2022-12-25T07:02:59.069Z,61.10
2022-12-25T07:05:01.187Z,61.10
2022-12-25T07:07:08.329Z,61.10
2022-12-25T07:09:10.647Z,61.00
2022-12-25T07:11:12.525Z,61.10
2022-12-25T07:13:14.284Z,61.10
2022-12-25T07:15:16.231Z,61.10
2022-12-25T07:17:18.563Z,61.00
2022-12-25T07:19:20.362Z,61.00
2022-12-25T07:21:22.079Z,61.00
2022-12-25T07:23:23.925Z,60.90
2022-12-25T07:25:25.645Z,60.90
2022-12-25T07:27:27.556Z,60.80
2022-12-25T07:29:29.287Z,60.80
2022-12-25T07:31:31.159Z,60.80
2022-12-25T07:33:33.322Z,60.60
2022-12-25T07:35:35.092Z,60.70
2022-12-25T07:37:36.809Z,60.70
2022-12-25T07:39:38.772Z,60.60
2022-12-25T07:41:41.934Z,60.80
2022-12-25T07:43:50.607Z,60.60
2022-12-25T07:45:59.026Z,60.70
2022-12-25T07:48:05.125Z,60.70
2022-12-25T07:50:08.152Z,60.60
2022-12-25T07:52:09.911Z,60.60
2022-12-25T07:54:11.773Z,60.70
2022-12-25T07:56:15.188Z,60.70
2022-12-25T07:58:22.998Z,60.80
2022-12-25T08:00:25.135Z,60.60
2022-12-25T08:02:27.128Z,60.70
2022-12-25T08:04:29.141Z,60.60
2022-12-25T08:06:32.221Z,60.60
2022-12-25T08:08:34.615Z,60.60
2022-12-25T08:10:36.365Z,60.60
2022-12-25T08:12:38.137Z,60.60
2022-12-25T08:14:39.895Z,60.70
2022-12-25T08:16:41.790Z,60.60
2022-12-25T08:18:43.588Z,60.60
2022-12-25T08:20:45.426Z,60.50
2022-12-25T08:22:47.231Z,60.50
2022-12-25T08:24:49.023Z,60.50
2022-12-25T08:26:51.034Z,60.60
2022-12-25T08:28:52.867Z,60.60
2022-12-25T08:30:54.620Z,60.40
2022-12-25T08:32:56.451Z,60.40
2022-12-25T08:34:58.167Z,60.50
2022-12-25T08:37:00.013Z,60.40
2022-12-25T08:39:03.326Z,60.30
2022-12-25T08:41:05.685Z,60.40
2022-12-25T08:43:07.452Z,60.30
2022-12-25T08:45:09.670Z,60.30
2022-12-25T08:47:11.404Z,60.40
2022-12-25T08:49:13.247Z,60.40
2022-12-25T08:51:17.065Z,60.40
2022-12-25T08:53:19.309Z,60.40
2022-12-25T08:55:21.060Z,60.40
2022-12-25T08:57:22.850Z,60.40
2022-12-25T08:59:24.620Z,60.40
2022-12-25T09:01:26.472Z,60.40
2022-12-25T09:03:28.325Z,60.40
2022-12-25T09:05:30.273Z,60.40
2022-12-25T09:07:32.000Z,60.30
2022-12-25T09:09:33.797Z,60.30
2022-12-25T09:11:36.759Z,60.30
2022-12-25T09:13:38.926Z,60.40
2022-12-25T09:15:40.880Z,60.40
2022-12-25T09:17:42.739Z,60.40
2022-12-25T09:19:44.452Z,60.30
2022-12-25T09:21:46.234Z,60.30
2022-12-25T09:23:48.089Z,60.20
2022-12-25T09:25:49.888Z,60.20
2022-12-25T09:27:51.610Z,60.20
2022-12-25T09:29:53.394Z,60.20
2022-12-25T09:31:55.170Z,60.20
2022-12-25T09:33:57.699Z,60.30
2022-12-25T09:36:06.983Z,60.30
2022-12-25T09:38:08.759Z,60.30
2022-12-25T09:40:19.953Z,60.30
2022-12-25T09:42:25.171Z,60.30
2022-12-25T09:44:28.914Z,60.20
2022-12-25T09:46:37.503Z,60.20
2022-12-25T09:48:40.567Z,60.20
2022-12-25T09:50:46.846Z,60.20
2022-12-25T09:52:54.866Z,60.20
2022-12-25T09:54:59.305Z,60.10
2022-12-25T09:57:01.142Z,60.20
2022-12-25T09:59:03.431Z,60.00
2022-12-25T10:01:15.385Z,60.00
2022-12-25T10:03:32.494Z,60.00
2022-12-25T10:05:40.078Z,59.90
2022-12-25T10:07:47.184Z,60.00
2022-12-25T10:09:48.881Z,60.00
2022-12-25T10:11:50.609Z,60.70
2022-12-25T10:13:59.973Z,60.00
2022-12-25T10:16:11.171Z,60.00
2022-12-25T10:18:15.961Z,60.70
2022-12-25T10:20:40.790Z,60.00
2022-12-25T10:22:44.787Z,59.90
2022-12-25T10:24:49.201Z,59.80
2022-12-25T10:26:51.788Z,59.80
2022-12-25T10:29:12.070Z,59.70
2022-12-25T10:31:21.549Z,59.70
2022-12-25T10:33:23.445Z,59.50
2022-12-25T10:35:26.466Z,59.50
2022-12-25T10:37:28.272Z,59.40
2022-12-25T10:39:30.017Z,59.50
2022-12-25T10:41:39.906Z,59.50
2022-12-25T10:43:45.202Z,59.50
2022-12-25T10:45:48.148Z,59.60
2022-12-25T10:47:53.045Z,59.60
2022-12-25T10:50:07.482Z,59.70
2022-12-25T10:52:19.378Z,59.70
2022-12-25T10:54:21.166Z,59.70
2022-12-25T10:56:22.905Z,59.70
2022-12-25T10:58:24.757Z,59.70
2022-12-25T11:00:27.828Z,59.70
2022-12-25T11:02:31.647Z,59.70
2022-12-25T11:04:34.866Z,59.70
2022-12-25T11:06:36.617Z,59.60
2022-12-25T11:08:38.378Z,59.50
2022-12-25T11:10:40.972Z,59.60
2022-12-25T11:12:44.787Z,59.60
2022-12-25T11:14:53.971Z,59.40
2022-12-25T11:16:55.936Z,59.50
2022-12-25T11:18:58.609Z,59.50
2022-12-25T11:21:22.252Z,59.40
2022-12-25T11:23:25.283Z,59.40
2022-12-25T11:25:27.897Z,59.50
2022-12-25T11:27:30.268Z,59.50
2022-12-25T11:29:49.112Z,59.50
2022-12-25T11:31:51.275Z,59.60
2022-12-25T11:33:53.062Z,59.70
2022-12-25T11:35:55.539Z,59.70
2022-12-25T11:37:57.305Z,59.80
2022-12-25T11:39:59.345Z,59.80
2022-12-25T11:42:17.537Z,59.80
2022-12-25T11:44:42.098Z,59.80
2022-12-25T11:46:45.915Z,60.40
2022-12-25T11:48:49.964Z,59.70
2022-12-25T11:50:54.062Z,59.60
2022-12-25T11:52:57.144Z,59.40
2022-12-25T11:55:03.061Z,59.30
2022-12-25T11:57:06.235Z,59.30
2022-12-25T11:59:19.874Z,59.40
2022-12-25T12:01:41.805Z,59.40
2022-12-25T12:03:43.973Z,59.40
2022-12-25T12:05:53.280Z,59.40
2022-12-25T12:07:59.323Z,59.40
2022-12-25T12:10:06.552Z,59.20
2022-12-25T12:12:08.235Z,59.20
2022-12-25T12:14:28.862Z,58.50
2022-12-25T12:16:30.731Z,58.40
2022-12-25T12:18:33.443Z,58.50
2022-12-25T12:20:35.954Z,58.10
2022-12-25T12:22:37.898Z,58.10
2022-12-25T12:24:42.775Z,58.30
2022-12-25T12:26:46.254Z,58.60
2022-12-25T12:28:49.073Z,58.60
2022-12-25T12:31:20.727Z,58.90
2022-12-25T12:33:22.577Z,59.10
2022-12-25T12:35:26.338Z,59.40
2022-12-25T12:37:30.546Z,59.20
2022-12-25T12:39:35.197Z,59.70
2022-12-25T12:41:42.750Z,59.50
2022-12-25T12:43:57.897Z,59.40
2022-12-25T12:46:05.371Z,59.60
2022-12-25T12:48:16.714Z,59.60
2022-12-25T12:50:30.809Z,59.50
2022-12-25T12:52:32.534Z,59.40
2022-12-25T12:54:50.295Z,59.50
2022-12-25T12:56:58.185Z,59.70
2022-12-25T12:59:00.075Z,59.80
2022-12-25T13:01:14.068Z,59.80
2022-12-25T13:03:30.816Z,59.90
2022-12-25T13:05:57.066Z,59.70
2022-12-25T13:08:08.033Z,59.70
2022-12-25T13:10:09.779Z,59.80
2022-12-25T13:12:12.237Z,59.80
2022-12-25T13:14:15.785Z,59.60
2022-12-25T13:16:26.378Z,59.80
2022-12-25T13:18:28.248Z,59.80
2022-12-25T13:20:42.223Z,59.50
2022-12-25T13:22:49.140Z,59.60
2022-12-25T13:24:58.491Z,59.50
2022-12-25T13:27:00.439Z,59.50
2022-12-25T13:29:06.452Z,59.50
2022-12-25T13:31:12.892Z,60.30
2022-12-25T13:33:17.775Z,59.50
2022-12-25T13:35:20.462Z,59.50
2022-12-25T13:37:24.458Z,59.40
2022-12-25T13:39:26.353Z,59.40
2022-12-25T13:41:34.461Z,59.30
2022-12-25T13:43:36.393Z,59.30
2022-12-25T13:45:38.296Z,59.20
2022-12-25T13:47:41.248Z,59.30
2022-12-25T13:49:44.314Z,59.20
2022-12-25T13:51:46.265Z,59.20
2022-12-25T13:53:48.040Z,59.10
2022-12-25T13:55:53.451Z,59.00
2022-12-25T13:57:56.562Z,59.70
2022-12-25T13:59:58.869Z,59.00
2022-12-25T14:02:00.875Z,59.10
2022-12-25T14:04:03.126Z,59.10
2022-12-25T14:06:24.258Z,59.10
2022-12-25T14:08:27.479Z,59.10
2022-12-25T14:10:32.399Z,59.00
2022-12-25T14:12:34.172Z,58.90
2022-12-25T14:14:36.478Z,59.10
2022-12-25T14:16:40.761Z,59.10
2022-12-25T14:18:50.444Z,59.10
2022-12-25T14:20:59.578Z,59.00
2022-12-25T14:23:01.432Z,59.00
2022-12-25T14:25:03.192Z,59.20
2022-12-25T14:27:06.785Z,59.20
2022-12-25T14:29:17.644Z,59.30
2022-12-25T14:31:21.182Z,59.20
2022-12-25T14:33:23.980Z,59.20
2022-12-25T14:35:25.793Z,59.20
2022-12-25T14:37:28.851Z,59.20
2022-12-25T14:39:32.533Z,59.30
2022-12-25T14:41:38.521Z,59.40
2022-12-25T14:43:40.303Z,59.40
2022-12-25T14:45:42.095Z,59.30
2022-12-25T14:47:51.720Z,59.40
2022-12-25T14:49:53.440Z,59.50
2022-12-25T14:51:55.259Z,59.50
2022-12-25T14:53:58.877Z,59.60
2022-12-25T14:56:00.710Z,59.60
2022-12-25T14:58:03.962Z,59.60
2022-12-25T15:00:08.951Z,59.60
2022-12-25T15:02:17.414Z,59.70
2022-12-25T15:04:19.871Z,59.80
2022-12-25T15:06:22.645Z,59.80
2022-12-25T15:08:24.903Z,59.90
2022-12-25T15:10:58.968Z,60.00
2022-12-25T15:12:48.562Z,59.90
2022-12-25T15:14:50.299Z,60.00
2022-12-25T15:16:53.881Z,60.00
2022-12-25T15:18:55.822Z,60.10
2022-12-25T15:20:57.783Z,60.00
2022-12-25T15:23:19.462Z,60.00
2022-12-25T15:25:22.854Z,60.10
2022-12-25T15:27:24.574Z,60.10
2022-12-25T15:29:52.186Z,59.90
2022-12-25T15:31:48.079Z,59.90
2022-12-25T15:33:49.904Z,60.00
2022-12-25T15:35:51.649Z,60.10
2022-12-25T15:37:53.461Z,60.70
2022-12-25T15:39:55.484Z,60.10
2022-12-25T15:41:57.327Z,60.20
2022-12-25T15:43:59.129Z,60.20
2022-12-25T15:46:01.037Z,60.20
2022-12-25T15:48:02.834Z,60.20
2022-12-25T15:50:04.858Z,60.20
2022-12-25T15:52:07.704Z,60.20
2022-12-25T15:54:09.935Z,60.30
2022-12-25T15:56:12.080Z,60.30
2022-12-25T15:58:14.089Z,60.30
2022-12-25T16:00:20.421Z,60.40
2022-12-25T16:02:22.391Z,60.50
2022-12-25T16:04:25.186Z,60.40
2022-12-25T16:06:26.995Z,60.40
2022-12-25T16:08:28.727Z,60.40
2022-12-25T16:10:36.593Z,60.50
2022-12-25T16:12:40.302Z,60.40
2022-12-25T16:14:42.341Z,60.40
2022-12-25T16:16:44.106Z,60.40
2022-12-25T16:18:47.716Z,60.40
2022-12-25T16:20:53.656Z,60.50
2022-12-25T16:22:55.522Z,60.50
2022-12-25T16:24:57.256Z,60.40
2022-12-25T16:26:59.060Z,60.40
2022-12-25T16:29:05.154Z,60.40
2022-12-25T16:31:09.088Z,60.40
2022-12-25T16:33:11.010Z,60.40
2022-12-25T16:35:12.857Z,60.40
2022-12-25T16:37:14.572Z,61.10
2022-12-25T16:39:16.403Z,60.60
2022-12-25T16:41:18.358Z,60.50
2022-12-25T16:43:23.937Z,60.50
2022-12-25T16:45:26.059Z,60.50
2022-12-25T16:47:27.931Z,60.50
2022-12-25T16:49:29.646Z,60.50
2022-12-25T16:51:31.526Z,60.60
2022-12-25T16:53:33.273Z,60.60
2022-12-25T16:55:35.706Z,60.60
2022-12-25T16:57:37.444Z,60.60
2022-12-25T16:59:40.543Z,60.60
2022-12-25T17:01:42.444Z,60.50
2022-12-25T17:03:44.917Z,60.60
2022-12-25T17:05:46.710Z,60.60
2022-12-25T17:07:48.515Z,60.60
2022-12-25T17:09:50.258Z,60.50
2022-12-25T17:11:52.080Z,60.40
2022-12-25T17:13:53.902Z,60.40
2022-12-25T17:15:55.792Z,60.60
2022-12-25T17:17:57.585Z,60.40
2022-12-25T17:19:59.343Z,60.40
2022-12-25T17:22:01.058Z,60.50
2022-12-25T17:24:04.016Z,60.50
2022-12-25T17:26:06.218Z,60.40
2022-12-25T17:28:07.994Z,60.40
2022-12-25T17:30:09.966Z,60.50
2022-12-25T17:32:11.777Z,60.40
2022-12-25T17:34:13.495Z,60.50
2022-12-25T17:36:17.660Z,60.50
2022-12-25T17:38:19.359Z,60.40
2022-12-25T17:40:21.177Z,60.40
2022-12-25T17:42:22.992Z,60.40
2022-12-25T17:44:24.751Z,60.40
2022-12-25T17:46:27.637Z,60.50
2022-12-25T17:48:29.479Z,60.50
2022-12-25T17:50:35.881Z,60.50
2022-12-25T17:52:41.033Z,60.40
2022-12-25T17:54:43.230Z,60.40
2022-12-25T17:56:45.045Z,60.40
2022-12-25T17:58:53.694Z,60.40
2022-12-25T18:00:56.358Z,60.60
2022-12-25T18:02:58.277Z,60.50
2022-12-25T18:05:00.220Z,60.50
2022-12-25T18:07:01.986Z,60.50
2022-12-25T18:09:03.874Z,60.60
2022-12-25T18:11:07.057Z,60.60
2022-12-25T18:13:10.497Z,60.60
2022-12-25T18:15:12.518Z,60.60
2022-12-25T18:17:14.306Z,60.60
2022-12-25T18:19:16.405Z,60.60
2022-12-25T18:21:18.422Z,60.60
2022-12-25T18:23:20.313Z,60.60
2022-12-25T18:25:22.399Z,60.50
2022-12-25T18:27:24.110Z,61.20
2022-12-25T18:29:25.927Z,60.40
2022-12-25T18:31:28.165Z,60.60
2022-12-25T18:33:29.955Z,60.60
2022-12-25T18:35:31.960Z,60.60
2022-12-25T18:37:39.752Z,60.60
2022-12-25T18:39:42.059Z,60.50
2022-12-25T18:41:43.995Z,60.50
2022-12-25T18:43:52.253Z,60.60
2022-12-25T18:46:00.504Z,60.60
2022-12-25T18:48:02.401Z,60.50
2022-12-25T18:50:04.562Z,60.60
2022-12-25T18:52:48.462Z,60.50
2022-12-25T18:54:31.186Z,60.50
2022-12-25T18:56:33.049Z,60.60
2022-12-25T18:58:35.899Z,60.40
2022-12-25T19:00:37.921Z,60.60
2022-12-25T19:02:40.179Z,60.50
2022-12-25T19:04:51.284Z,60.50
2022-12-25T19:06:53.162Z,60.50
2022-12-25T19:08:56.227Z,60.50
2022-12-25T19:10:58.980Z,60.50
2022-12-25T19:13:05.367Z,60.50
2022-12-25T19:15:07.528Z,60.60
2022-12-25T19:17:09.339Z,60.60
2022-12-25T19:19:11.446Z,60.50
2022-12-25T19:21:13.535Z,60.60
2022-12-25T19:23:16.159Z,60.50
2022-12-25T19:25:18.162Z,60.50
2022-12-25T19:27:20.088Z,60.50
2022-12-25T19:29:21.942Z,60.50
2022-12-25T19:31:24.122Z,60.50
2022-12-25T19:33:26.058Z,60.50
2022-12-25T19:35:28.150Z,60.50
2022-12-25T19:37:30.558Z,60.60
2022-12-25T19:39:32.368Z,60.60
2022-12-25T19:41:34.896Z,60.60
2022-12-25T19:43:37.715Z,60.60
2022-12-25T19:45:39.795Z,60.60
2022-12-25T19:47:41.623Z,60.50
2022-12-25T19:49:44.719Z,60.50
2022-12-25T19:51:47.815Z,60.60
2022-12-25T19:53:50.319Z,60.50
2022-12-25T19:55:54.895Z,60.60
2022-12-25T19:57:56.780Z,60.60
2022-12-25T19:59:58.983Z,60.60
2022-12-25T20:02:01.233Z,60.60
2022-12-25T20:04:12.789Z,60.60
2022-12-25T20:06:17.059Z,60.60
2022-12-25T20:08:19.047Z,60.60
2022-12-25T20:10:21.016Z,60.60
2022-12-25T20:12:22.917Z,60.60
2022-12-25T20:14:24.913Z,60.50
2022-12-25T20:16:26.905Z,60.50
2022-12-25T20:18:28.867Z,60.50
2022-12-25T20:20:30.746Z,60.50
2022-12-25T20:22:32.984Z,60.50
2022-12-25T20:24:34.835Z,60.50
2022-12-25T20:26:37.700Z,60.50
2022-12-25T20:28:40.440Z,60.50
2022-12-25T20:30:42.571Z,60.40
2022-12-25T20:32:50.106Z,60.40
2022-12-25T20:34:55.253Z,60.40
2022-12-25T20:36:57.158Z,60.50
2022-12-25T20:38:59.085Z,60.50
2022-12-25T20:41:26.292Z,60.50
2022-12-25T20:43:23.927Z,60.50
2022-12-25T20:45:25.939Z,60.50
2022-12-25T20:47:28.004Z,60.50
2022-12-25T20:49:30.017Z,60.50
2022-12-25T20:51:31.882Z,60.50
2022-12-25T20:53:33.743Z,60.50
2022-12-25T20:55:35.578Z,60.40
2022-12-25T20:57:37.647Z,60.40
2022-12-25T20:59:39.640Z,60.50
2022-12-25T21:01:41.653Z,60.40
2022-12-25T21:03:44.190Z,60.40
2022-12-25T21:05:53.254Z,60.50
2022-12-25T21:07:55.125Z,60.50
2022-12-25T21:09:57.161Z,60.50
2022-12-25T21:11:59.276Z,60.50
2022-12-25T21:14:01.088Z,60.50
2022-12-25T21:16:07.062Z,60.50
2022-12-25T21:18:09.070Z,60.60
2022-12-25T21:20:11.119Z,60.60
2022-12-25T21:22:13.447Z,60.60
2022-12-25T21:24:18.227Z,60.60
2022-12-25T21:26:26.422Z,60.60
2022-12-25T21:28:28.251Z,60.60
2022-12-25T21:30:30.312Z,60.60
2022-12-25T21:32:32.242Z,60.50
2022-12-25T21:34:34.259Z,60.50
2022-12-25T21:36:36.100Z,60.60
2022-12-25T21:38:38.401Z,60.50
2022-12-25T21:40:40.220Z,60.60
2022-12-25T21:42:42.279Z,60.60
2022-12-25T21:44:44.185Z,60.60
2022-12-25T21:46:46.251Z,60.60
2022-12-25T21:48:50.720Z,60.60
2022-12-25T21:50:52.779Z,60.50
2022-12-25T21:52:54.609Z,60.60
2022-12-25T21:54:56.699Z,60.60
2022-12-25T21:56:58.666Z,60.50
2022-12-25T21:59:01.526Z,60.60
2022-12-25T22:01:04.815Z,60.60
2022-12-25T22:03:06.883Z,60.60
2022-12-25T22:05:08.811Z,60.50
2022-12-25T22:07:13.121Z,60.50
2022-12-25T22:09:14.873Z,60.60
2022-12-25T22:11:16.785Z,60.60
2022-12-25T22:13:18.688Z,60.60
2022-12-25T22:15:20.635Z,60.60
2022-12-25T22:17:22.536Z,60.60
2022-12-25T22:19:24.851Z,60.60
2022-12-25T22:21:26.822Z,60.60
2022-12-25T22:23:28.755Z,60.60
2022-12-25T22:25:33.075Z,60.60
2022-12-25T22:27:36.185Z,60.60
2022-12-25T22:29:38.040Z,60.60
2022-12-25T22:31:46.463Z,60.60
2022-12-25T22:33:48.837Z,60.60
2022-12-25T22:35:50.762Z,60.50
2022-12-25T22:37:52.582Z,60.50
2022-12-25T22:39:54.473Z,60.50
2022-12-25T22:41:57.542Z,60.50
2022-12-25T22:46:23.707Z,60.50
2022-12-25T22:48:25.783Z,60.50
2022-12-25T22:50:29.853Z,60.50
2022-12-25T22:52:31.668Z,60.50
2022-12-25T22:54:33.631Z,60.50
2022-12-25T22:56:39.642Z,60.50
2022-12-25T22:58:41.483Z,60.50
2022-12-25T23:00:46.412Z,60.60
2022-12-25T23:02:48.696Z,60.60
2022-12-25T23:04:55.114Z,60.60
2022-12-25T23:06:56.886Z,60.60
2022-12-25T23:08:58.978Z,60.60
2022-12-25T23:11:04.891Z,60.50
2022-12-25T23:13:06.871Z,60.50
2022-12-25T23:15:09.038Z,60.50
2022-12-25T23:17:12.622Z,60.60
2022-12-25T23:19:14.377Z,60.50
2022-12-25T23:21:17.612Z,60.50
2022-12-25T23:23:19.735Z,60.50
2022-12-25T23:25:21.704Z,60.50
2022-12-25T23:27:23.605Z,60.50
2022-12-25T23:29:25.643Z,60.50
2022-12-25T23:31:32.406Z,60.50
2022-12-25T23:33:34.468Z,60.60
2022-12-25T23:35:36.400Z,60.50
2022-12-25T23:37:38.465Z,60.50
2022-12-25T23:39:40.723Z,60.50
2022-12-25T23:41:43.400Z,60.50
2022-12-25T23:43:45.305Z,60.50
2022-12-25T23:45:50.394Z,60.50
2022-12-25T23:47:52.354Z,60.50
2022-12-25T23:49:54.282Z,60.40
2022-12-25T23:51:56.526Z,60.50
2022-12-25T23:53:58.628Z,60.50
2022-12-25T23:56:00.528Z,60.40
2022-12-25T23:58:02.506Z,60.40
